Главная страница
METAR-TAF:

METAR-TAF

Аэропорты :

Минеральные Воды, Россия

широта: 44-14N, долгота: 043-04E, высота над уровнем моря: 314 м

Текущие метеонаблюдения

Эта сводка был подготовлена 11 минут назад, в 03:00 UTC
Ветер 2 Узел переменных направлений
Температура 15°C
Влажность 82%
Давление 1013 hPa
Видимость 10 км и более

METAR: URMM 170300Z VRB01MPS 9999 NSC 15/12 Q1013 R12/090070 NOSIG RMK QFE732/0976

Время: 06:11 (03:11 UTC)

Прогноз

Эта сводка был подготовлена 1 час и 12 минут назад, в 01:59 UTC
Прогноз действительный с 17-го 03 UTC до 18-го 03 UTC
Ветер 10 Узел от восточный с порывами до 23 Узел
Видимость 10 км и более
Отдельные облака на высоте 3000 фута
изменения
С 17-го 16 UTC до 17-го 18 UTC
Ветер 6 Узел от восточный с порывами до 16 Узел
временами
С 17-го 23 UTC до 18-го 03 UTC
Видимость: 3100 м
Рассеянная облачность на высоте 1100 фута
дымка

TAF: URMM 170159Z 1703/1803 10005G12MPS 9999 SCT030 TX30/1712Z TN14/1802Z BECMG 1716/1718 10003G08MPS TEMPO 1723/1803 3100 BR BKN011

Метеонаблюдения и прогнозы для более 4000 аэропортов (сводки METAR и TAF).

Имеющиеся станции представлены на карте желтыми и красными точками.

Чтобы увидеть название станции, наведите на нее мышь.

Затем щелкните, чтобы увидеть метеонаблюдения и метеопрогнозы.

Управление картой: чтобы увеличить масштаб, щелкните зеленые кнопки с черным крестиком; чтобы уменьшить масштаб, щелкните зеленую кнопку с тире; для просмотра соседних карт щелкайте зеленые стрелки.


METAR-TAF: